sensor_id;sensor_type;location;lat;lon;timestamp;P1;durP1;ratioP1;P2;durP2;ratioP2
2211;SDS011;48849;48.758;9.158;2022-10-30T00:00:24;11.52;;;6.18;;
2211;SDS011;48849;48.758;9.158;2022-10-30T00:02:51;11.70;;;5.45;;
2211;SDS011;48849;48.758;9.158;2022-10-30T00:05:18;10.90;;;4.80;;
2211;SDS011;48849;48.758;9.158;2022-10-30T00:07:46;10.13;;;5.47;;
2211;SDS011;48849;48.758;9.158;2022-10-30T00:10:13;8.10;;;4.38;;
2211;SDS011;48849;48.758;9.158;2022-10-30T00:12:41;10.05;;;5.00;;
2211;SDS011;48849;48.758;9.158;2022-10-30T00:15:08;11.85;;;5.30;;
2211;SDS011;48849;48.758;9.158;2022-10-30T00:17:36;8.93;;;4.30;;
2211;SDS011;48849;48.758;9.158;2022-10-30T00:20:03;11.75;;;5.85;;
2211;SDS011;48849;48.758;9.158;2022-10-30T00:22:31;12.32;;;5.03;;
2211;SDS011;48849;48.758;9.158;2022-10-30T00:25:01;11.43;;;5.15;;
2211;SDS011;48849;48.758;9.158;2022-10-30T00:27:27;7.55;;;4.30;;
2211;SDS011;48849;48.758;9.158;2022-10-30T00:29:54;11.75;;;4.47;;
2211;SDS011;48849;48.758;9.158;2022-10-30T00:32:21;13.27;;;5.00;;
2211;SDS011;48849;48.758;9.158;2022-10-30T00:34:48;12.88;;;4.93;;
2211;SDS011;48849;48.758;9.158;2022-10-30T00:37:14;11.53;;;4.70;;
2211;SDS011;48849;48.758;9.158;2022-10-30T00:39:41;9.97;;;4.73;;
2211;SDS011;48849;48.758;9.158;2022-10-30T00:42:10;15.18;;;4.30;;
2211;SDS011;48849;48.758;9.158;2022-10-30T00:44:40;12.90;;;4.30;;
2211;SDS011;48849;48.758;9.158;2022-10-30T00:47:12;11.17;;;5.00;;
2211;SDS011;48849;48.758;9.158;2022-10-30T00:49:47;11.40;;;4.10;;
2211;SDS011;48849;48.758;9.158;2022-10-30T00:52:21;10.47;;;3.80;;
2211;SDS011;48849;48.758;9.158;2022-10-30T00:54:51;12.38;;;3.72;;
2211;SDS011;48849;48.758;9.158;2022-10-30T00:57:21;10.63;;;4.25;;
2211;SDS011;48849;48.758;9.158;2022-10-30T00:59:48;12.98;;;4.25;;
2211;SDS011;48849;48.758;9.158;2022-10-30T01:02:15;11.68;;;4.55;;
2211;SDS011;48849;48.758;9.158;2022-10-30T01:04:44;7.90;;;4.05;;
2211;SDS011;48849;48.758;9.158;2022-10-30T01:07:13;10.27;;;4.60;;
2211;SDS011;48849;48.758;9.158;2022-10-30T01:09:41;10.40;;;5.07;;
2211;SDS011;48849;48.758;9.158;2022-10-30T01:12:10;7.33;;;3.67;;
2211;SDS011;48849;48.758;9.158;2022-10-30T01:14:39;7.80;;;4.40;;
2211;SDS011;48849;48.758;9.158;2022-10-30T01:17:22;8.30;;;4.07;;
2211;SDS011;48849;48.758;9.158;2022-10-30T01:20:12;10.43;;;3.70;;
2211;SDS011;48849;48.758;9.158;2022-10-30T01:22:55;9.97;;;4.63;;
2211;SDS011;48849;48.758;9.158;2022-10-30T01:25:33;11.90;;;4.10;;
2211;SDS011;48849;48.758;9.158;2022-10-30T01:28:08;9.07;;;4.50;;
2211;SDS011;48849;48.758;9.158;2022-10-30T01:30:50;11.07;;;4.73;;
2211;SDS011;48849;48.758;9.158;2022-10-30T01:33:31;12.33;;;4.83;;
2211;SDS011;48849;48.758;9.158;2022-10-30T01:36:07;10.80;;;5.53;;
2211;SDS011;48849;48.758;9.158;2022-10-30T01:38:43;13.73;;;7.20;;
2211;SDS011;48849;48.758;9.158;2022-10-30T01:41:15;11.97;;;7.23;;
2211;SDS011;48849;48.758;9.158;2022-10-30T01:43:41;11.60;;;6.93;;
2211;SDS011;48849;48.758;9.158;2022-10-30T01:46:16;14.45;;;6.68;;
2211;SDS011;48849;48.758;9.158;2022-10-30T01:48:57;10.23;;;5.67;;
2211;SDS011;48849;48.758;9.158;2022-10-30T01:51:40;10.17;;;5.17;;
2211;SDS011;48849;48.758;9.158;2022-10-30T01:54:18;7.90;;;4.70;;
2211;SDS011;48849;48.758;9.158;2022-10-30T01:56:54;11.20;;;5.50;;
2211;SDS011;48849;48.758;9.158;2022-10-30T01:59:28;11.57;;;5.57;;
2211;SDS011;48849;48.758;9.158;2022-10-30T02:02:01;13.53;;;4.87;;
2211;SDS011;48849;48.758;9.158;2022-10-30T02:04:28;12.68;;;5.97;;
2211;SDS011;48849;48.758;9.158;2022-10-30T02:06:55;11.15;;;5.07;;
2211;SDS011;48849;48.758;9.158;2022-10-30T02:09:23;15.43;;;5.53;;
2211;SDS011;48849;48.758;9.158;2022-10-30T02:11:50;9.18;;;5.30;;
2211;SDS011;48849;48.758;9.158;2022-10-30T02:14:20;12.90;;;5.10;;
2211;SDS011;48849;48.758;9.158;2022-10-30T02:16:51;9.75;;;5.15;;
2211;SDS011;48849;48.758;9.158;2022-10-30T02:19:23;10.00;;;6.03;;
2211;SDS011;48849;48.758;9.158;2022-10-30T02:21:51;12.40;;;5.80;;
2211;SDS011;48849;48.758;9.158;2022-10-30T02:26:50;11.98;;;6.25;;
2211;SDS011;48849;48.758;9.158;2022-10-30T02:29:16;12.50;;;5.30;;
2211;SDS011;48849;48.758;9.158;2022-10-30T02:31:44;6.93;;;5.00;;
2211;SDS011;48849;48.758;9.158;2022-10-30T02:34:11;9.43;;;5.55;;
2211;SDS011;48849;48.758;9.158;2022-10-30T02:36:38;17.83;;;5.75;;
2211;SDS011;48849;48.758;9.158;2022-10-30T02:39:07;14.13;;;6.28;;
2211;SDS011;48849;48.758;9.158;2022-10-30T02:41:33;9.38;;;5.90;;
2211;SDS011;48849;48.758;9.158;2022-10-30T02:44:00;11.50;;;5.20;;
2211;SDS011;48849;48.758;9.158;2022-10-30T02:46:27;15.20;;;6.90;;
2211;SDS011;48849;48.758;9.158;2022-10-30T02:48:54;12.40;;;7.00;;
2211;SDS011;48849;48.758;9.158;2022-10-30T02:51:20;12.35;;;6.20;;
2211;SDS011;48849;48.758;9.158;2022-10-30T02:53:47;12.38;;;6.22;;
2211;SDS011;48849;48.758;9.158;2022-10-30T02:56:15;11.80;;;6.10;;
2211;SDS011;48849;48.758;9.158;2022-10-30T02:58:42;7.15;;;5.35;;
2211;SDS011;48849;48.758;9.158;2022-10-30T03:01:10;13.18;;;5.47;;
2211;SDS011;48849;48.758;9.158;2022-10-30T03:03:38;10.02;;;4.85;;
2211;SDS011;48849;48.758;9.158;2022-10-30T03:06:06;10.77;;;5.22;;
2211;SDS011;48849;48.758;9.158;2022-10-30T03:08:34;13.05;;;5.80;;
2211;SDS011;48849;48.758;9.158;2022-10-30T03:11:01;12.20;;;5.97;;
2211;SDS011;48849;48.758;9.158;2022-10-30T03:13:30;10.05;;;4.97;;
2211;SDS011;48849;48.758;9.158;2022-10-30T03:15:58;11.90;;;5.65;;
2211;SDS011;48849;48.758;9.158;2022-10-30T03:18:26;10.38;;;5.50;;
2211;SDS011;48849;48.758;9.158;2022-10-30T03:20:56;14.43;;;5.32;;
2211;SDS011;48849;48.758;9.158;2022-10-30T03:23:23;11.88;;;6.18;;
2211;SDS011;48849;48.758;9.158;2022-10-30T03:25:51;8.15;;;4.90;;
2211;SDS011;48849;48.758;9.158;2022-10-30T03:28:19;14.68;;;5.35;;
2211;SDS011;48849;48.758;9.158;2022-10-30T03:30:47;11.25;;;4.72;;
2211;SDS011;48849;48.758;9.158;2022-10-30T03:33:14;11.13;;;4.90;;
2211;SDS011;48849;48.758;9.158;2022-10-30T03:35:41;9.57;;;4.43;;
2211;SDS011;48849;48.758;9.158;2022-10-30T03:38:09;7.10;;;4.45;;
2211;SDS011;48849;48.758;9.158;2022-10-30T03:40:36;13.95;;;5.30;;
2211;SDS011;48849;48.758;9.158;2022-10-30T03:43:03;9.88;;;5.25;;
2211;SDS011;48849;48.758;9.158;2022-10-30T03:45:30;15.88;;;4.70;;
2211;SDS011;48849;48.758;9.158;2022-10-30T03:47:59;12.10;;;4.70;;
2211;SDS011;48849;48.758;9.158;2022-10-30T03:50:26;8.85;;;5.05;;
2211;SDS011;48849;48.758;9.158;2022-10-30T03:52:53;10.18;;;3.90;;
2211;SDS011;48849;48.758;9.158;2022-10-30T03:55:20;13.18;;;4.60;;
2211;SDS011;48849;48.758;9.158;2022-10-30T03:57:47;10.43;;;5.25;;
2211;SDS011;48849;48.758;9.158;2022-10-30T04:00:14;10.00;;;4.25;;
2211;SDS011;48849;48.758;9.158;2022-10-30T04:02:45;9.75;;;4.28;;
2211;SDS011;48849;48.758;9.158;2022-10-30T04:05:14;11.25;;;5.63;;
2211;SDS011;48849;48.758;9.158;2022-10-30T04:07:42;16.52;;;5.40;;
2211;SDS011;48849;48.758;9.158;2022-10-30T04:10:09;10.23;;;4.88;;
2211;SDS011;48849;48.758;9.158;2022-10-30T04:12:37;8.65;;;5.18;;
2211;SDS011;48849;48.758;9.158;2022-10-30T04:15:04;10.95;;;4.95;;
2211;SDS011;48849;48.758;9.158;2022-10-30T04:17:32;11.77;;;5.10;;
2211;SDS011;48849;48.758;9.158;2022-10-30T04:19:59;9.88;;;5.25;;
2211;SDS011;48849;48.758;9.158;2022-10-30T04:22:27;7.75;;;4.45;;
2211;SDS011;48849;48.758;9.158;2022-10-30T04:24:54;10.63;;;5.07;;
2211;SDS011;48849;48.758;9.158;2022-10-30T04:27:21;10.95;;;5.53;;
2211;SDS011;48849;48.758;9.158;2022-10-30T04:29:47;11.18;;;4.60;;
2211;SDS011;48849;48.758;9.158;2022-10-30T04:32:14;13.10;;;5.82;;
2211;SDS011;48849;48.758;9.158;2022-10-30T04:34:41;17.02;;;5.15;;
2211;SDS011;48849;48.758;9.158;2022-10-30T04:37:08;12.32;;;4.75;;
2211;SDS011;48849;48.758;9.158;2022-10-30T04:39:36;10.68;;;5.70;;
2211;SDS011;48849;48.758;9.158;2022-10-30T04:42:02;13.20;;;5.18;;
2211;SDS011;48849;48.758;9.158;2022-10-30T04:44:29;11.55;;;5.75;;
2211;SDS011;48849;48.758;9.158;2022-10-30T04:46:56;9.50;;;5.60;;
2211;SDS011;48849;48.758;9.158;2022-10-30T04:49:23;13.02;;;5.50;;
2211;SDS011;48849;48.758;9.158;2022-10-30T04:51:49;11.35;;;5.90;;
2211;SDS011;48849;48.758;9.158;2022-10-30T04:54:16;19.50;;;5.95;;
2211;SDS011;48849;48.758;9.158;2022-10-30T04:56:44;12.98;;;6.35;;
2211;SDS011;48849;48.758;9.158;2022-10-30T04:59:11;16.00;;;6.40;;
2211;SDS011;48849;48.758;9.158;2022-10-30T05:01:37;11.68;;;6.28;;
2211;SDS011;48849;48.758;9.158;2022-10-30T05:04:04;12.57;;;6.72;;
2211;SDS011;48849;48.758;9.158;2022-10-30T05:06:31;10.18;;;6.00;;
2211;SDS011;48849;48.758;9.158;2022-10-30T05:08:58;9.90;;;6.70;;
2211;SDS011;48849;48.758;9.158;2022-10-30T05:11:25;10.48;;;6.85;;
2211;SDS011;48849;48.758;9.158;2022-10-30T05:13:53;14.70;;;6.35;;
2211;SDS011;48849;48.758;9.158;2022-10-30T05:16:20;11.93;;;7.18;;
2211;SDS011;48849;48.758;9.158;2022-10-30T05:18:47;13.50;;;6.18;;
2211;SDS011;48849;48.758;9.158;2022-10-30T05:21:14;16.90;;;7.07;;
2211;SDS011;48849;48.758;9.158;2022-10-30T05:23:40;13.15;;;6.45;;
2211;SDS011;48849;48.758;9.158;2022-10-30T05:26:07;16.13;;;7.20;;
2211;SDS011;48849;48.758;9.158;2022-10-30T05:28:34;11.82;;;6.05;;
2211;SDS011;48849;48.758;9.158;2022-10-30T05:31:02;12.18;;;6.50;;
2211;SDS011;48849;48.758;9.158;2022-10-30T05:33:29;13.00;;;7.07;;
2211;SDS011;48849;48.758;9.158;2022-10-30T05:35:55;14.10;;;6.90;;
2211;SDS011;48849;48.758;9.158;2022-10-30T05:38:22;13.02;;;8.18;;
2211;SDS011;48849;48.758;9.158;2022-10-30T05:40:49;12.57;;;7.00;;
2211;SDS011;48849;48.758;9.158;2022-10-30T05:43:15;16.52;;;6.82;;
2211;SDS011;48849;48.758;9.158;2022-10-30T05:45:42;14.68;;;6.65;;
2211;SDS011;48849;48.758;9.158;2022-10-30T05:48:10;13.07;;;7.00;;
2211;SDS011;48849;48.758;9.158;2022-10-30T05:50:37;12.38;;;6.55;;
2211;SDS011;48849;48.758;9.158;2022-10-30T05:53:04;12.75;;;7.55;;
2211;SDS011;48849;48.758;9.158;2022-10-30T05:55:31;16.15;;;6.88;;
2211;SDS011;48849;48.758;9.158;2022-10-30T05:57:58;10.60;;;7.13;;
2211;SDS011;48849;48.758;9.158;2022-10-30T06:00:27;11.98;;;6.88;;
2211;SDS011;48849;48.758;9.158;2022-10-30T06:02:59;13.73;;;6.85;;
2211;SDS011;48849;48.758;9.158;2022-10-30T06:05:29;14.35;;;6.55;;
2211;SDS011;48849;48.758;9.158;2022-10-30T06:07:57;15.63;;;7.05;;
2211;SDS011;48849;48.758;9.158;2022-10-30T06:10:24;10.45;;;6.35;;
2211;SDS011;48849;48.758;9.158;2022-10-30T06:12:51;13.25;;;7.55;;
2211;SDS011;48849;48.758;9.158;2022-10-30T06:15:19;8.75;;;6.30;;
2211;SDS011;48849;48.758;9.158;2022-10-30T06:17:46;11.45;;;6.32;;
2211;SDS011;48849;48.758;9.158;2022-10-30T06:20:12;14.90;;;6.35;;
2211;SDS011;48849;48.758;9.158;2022-10-30T06:22:41;18.33;;;6.50;;
2211;SDS011;48849;48.758;9.158;2022-10-30T06:25:07;11.10;;;6.55;;
2211;SDS011;48849;48.758;9.158;2022-10-30T06:27:34;18.30;;;6.60;;
2211;SDS011;48849;48.758;9.158;2022-10-30T06:30:01;13.18;;;6.50;;
2211;SDS011;48849;48.758;9.158;2022-10-30T06:32:28;11.20;;;6.25;;
2211;SDS011;48849;48.758;9.158;2022-10-30T06:34:54;10.27;;;7.20;;
2211;SDS011;48849;48.758;9.158;2022-10-30T06:37:21;12.65;;;6.35;;
2211;SDS011;48849;48.758;9.158;2022-10-30T06:39:49;12.27;;;6.90;;
2211;SDS011;48849;48.758;9.158;2022-10-30T06:42:16;15.02;;;6.80;;
2211;SDS011;48849;48.758;9.158;2022-10-30T06:44:43;13.18;;;6.63;;
2211;SDS011;48849;48.758;9.158;2022-10-30T06:47:09;11.20;;;6.22;;
2211;SDS011;48849;48.758;9.158;2022-10-30T06:49:36;17.60;;;6.90;;
2211;SDS011;48849;48.758;9.158;2022-10-30T06:52:03;11.48;;;5.93;;
2211;SDS011;48849;48.758;9.158;2022-10-30T06:54:30;11.52;;;5.80;;
2211;SDS011;48849;48.758;9.158;2022-10-30T06:56:58;11.95;;;6.20;;
2211;SDS011;48849;48.758;9.158;2022-10-30T06:59:24;12.68;;;6.22;;
2211;SDS011;48849;48.758;9.158;2022-10-30T07:01:51;12.07;;;5.95;;
2211;SDS011;48849;48.758;9.158;2022-10-30T07:04:18;12.10;;;6.30;;
2211;SDS011;48849;48.758;9.158;2022-10-30T07:06:44;15.02;;;5.90;;
2211;SDS011;48849;48.758;9.158;2022-10-30T07:09:11;15.60;;;6.28;;
2211;SDS011;48849;48.758;9.158;2022-10-30T07:11:38;17.17;;;7.13;;
2211;SDS011;48849;48.758;9.158;2022-10-30T07:14:11;12.57;;;6.45;;
2211;SDS011;48849;48.758;9.158;2022-10-30T07:16:37;8.52;;;5.30;;
2211;SDS011;48849;48.758;9.158;2022-10-30T07:19:04;8.90;;;5.30;;
2211;SDS011;48849;48.758;9.158;2022-10-30T07:21:31;12.30;;;6.43;;
2211;SDS011;48849;48.758;9.158;2022-10-30T07:23:57;9.35;;;5.90;;
2211;SDS011;48849;48.758;9.158;2022-10-30T07:26:24;9.30;;;5.30;;
2211;SDS011;48849;48.758;9.158;2022-10-30T07:28:51;10.52;;;5.95;;
2211;SDS011;48849;48.758;9.158;2022-10-30T07:31:19;14.45;;;6.55;;
2211;SDS011;48849;48.758;9.158;2022-10-30T07:33:45;10.73;;;5.28;;
2211;SDS011;48849;48.758;9.158;2022-10-30T07:36:12;14.60;;;6.43;;
2211;SDS011;48849;48.758;9.158;2022-10-30T07:38:39;9.05;;;6.63;;
2211;SDS011;48849;48.758;9.158;2022-10-30T07:41:06;9.45;;;5.55;;
2211;SDS011;48849;48.758;9.158;2022-10-30T07:43:33;6.43;;;5.13;;
2211;SDS011;48849;48.758;9.158;2022-10-30T07:46:00;9.48;;;5.38;;
2211;SDS011;48849;48.758;9.158;2022-10-30T07:48:28;11.15;;;5.50;;
2211;SDS011;48849;48.758;9.158;2022-10-30T07:50:54;10.18;;;5.60;;
2211;SDS011;48849;48.758;9.158;2022-10-30T07:53:21;10.18;;;5.03;;
2211;SDS011;48849;48.758;9.158;2022-10-30T07:55:48;11.85;;;5.60;;
2211;SDS011;48849;48.758;9.158;2022-10-30T07:58:14;10.30;;;5.00;;
2211;SDS011;48849;48.758;9.158;2022-10-30T08:00:41;16.05;;;5.85;;
2211;SDS011;48849;48.758;9.158;2022-10-30T08:03:08;7.45;;;5.20;;
2211;SDS011;48849;48.758;9.158;2022-10-30T08:05:37;13.57;;;4.90;;
2211;SDS011;48849;48.758;9.158;2022-10-30T08:08:04;7.40;;;5.30;;
2211;SDS011;48849;48.758;9.158;2022-10-30T08:10:31;9.43;;;6.05;;
2211;SDS011;48849;48.758;9.158;2022-10-30T08:12:57;6.63;;;4.88;;
2211;SDS011;48849;48.758;9.158;2022-10-30T08:15:24;11.02;;;5.35;;
2211;SDS011;48849;48.758;9.158;2022-10-30T08:17:51;7.70;;;5.00;;
2211;SDS011;48849;48.758;9.158;2022-10-30T08:20:19;13.23;;;6.10;;
2211;SDS011;48849;48.758;9.158;2022-10-30T08:22:49;12.45;;;6.60;;
2211;SDS011;48849;48.758;9.158;2022-10-30T08:25:17;9.68;;;5.85;;
2211;SDS011;48849;48.758;9.158;2022-10-30T08:27:52;11.57;;;5.57;;
2211;SDS011;48849;48.758;9.158;2022-10-30T08:30:20;10.93;;;5.68;;
2211;SDS011;48849;48.758;9.158;2022-10-30T08:32:47;10.10;;;5.30;;
2211;SDS011;48849;48.758;9.158;2022-10-30T08:35:13;12.18;;;6.07;;
2211;SDS011;48849;48.758;9.158;2022-10-30T08:37:41;9.32;;;5.95;;
2211;SDS011;48849;48.758;9.158;2022-10-30T08:40:10;15.35;;;5.97;;
2211;SDS011;48849;48.758;9.158;2022-10-30T08:42:37;12.75;;;6.25;;
2211;SDS011;48849;48.758;9.158;2022-10-30T08:45:04;12.52;;;6.00;;
2211;SDS011;48849;48.758;9.158;2022-10-30T08:47:31;10.57;;;5.97;;
2211;SDS011;48849;48.758;9.158;2022-10-30T08:49:58;17.13;;;6.55;;
2211;SDS011;48849;48.758;9.158;2022-10-30T08:52:25;9.88;;;6.63;;
2211;SDS011;48849;48.758;9.158;2022-10-30T08:54:52;9.43;;;5.72;;
2211;SDS011;48849;48.758;9.158;2022-10-30T08:57:20;8.98;;;5.97;;
2211;SDS011;48849;48.758;9.158;2022-10-30T08:59:46;17.58;;;8.70;;
2211;SDS011;48849;48.758;9.158;2022-10-30T09:02:13;34.70;;;19.95;;
2211;SDS011;48849;48.758;9.158;2022-10-30T09:04:40;37.03;;;25.38;;
2211;SDS011;48849;48.758;9.158;2022-10-30T09:07:07;41.95;;;32.38;;
2211;SDS011;48849;48.758;9.158;2022-10-30T09:09:33;41.85;;;33.20;;
2211;SDS011;48849;48.758;9.158;2022-10-30T09:12:00;41.72;;;31.50;;
2211;SDS011;48849;48.758;9.158;2022-10-30T09:14:28;40.42;;;29.50;;
2211;SDS011;48849;48.758;9.158;2022-10-30T09:16:55;38.95;;;30.17;;
2211;SDS011;48849;48.758;9.158;2022-10-30T09:19:22;36.33;;;29.50;;
2211;SDS011;48849;48.758;9.158;2022-10-30T09:21:49;41.40;;;30.13;;
2211;SDS011;48849;48.758;9.158;2022-10-30T09:24:16;38.63;;;29.23;;
2211;SDS011;48849;48.758;9.158;2022-10-30T09:26:42;40.47;;;29.67;;
2211;SDS011;48849;48.758;9.158;2022-10-30T09:29:09;38.40;;;29.48;;
2211;SDS011;48849;48.758;9.158;2022-10-30T09:31:37;47.63;;;31.23;;
2211;SDS011;48849;48.758;9.158;2022-10-30T09:34:04;44.50;;;32.97;;
2211;SDS011;48849;48.758;9.158;2022-10-30T09:36:31;57.28;;;40.55;;
2211;SDS011;48849;48.758;9.158;2022-10-30T09:38:58;51.50;;;38.77;;
2211;SDS011;48849;48.758;9.158;2022-10-30T09:41:35;47.50;;;37.53;;
2211;SDS011;48849;48.758;9.158;2022-10-30T09:44:17;47.00;;;36.78;;
2211;SDS011;48849;48.758;9.158;2022-10-30T09:46:59;56.25;;;38.83;;
2211;SDS011;48849;48.758;9.158;2022-10-30T09:49:35;55.35;;;42.08;;
2211;SDS011;48849;48.758;9.158;2022-10-30T09:52:20;50.40;;;36.67;;
2211;SDS011;48849;48.758;9.158;2022-10-30T09:55:00;47.30;;;35.58;;
2211;SDS011;48849;48.758;9.158;2022-10-30T09:57:47;45.35;;;37.13;;
2211;SDS011;48849;48.758;9.158;2022-10-30T10:00:19;47.55;;;38.65;;
2211;SDS011;48849;48.758;9.158;2022-10-30T10:02:55;57.80;;;40.63;;
2211;SDS011;48849;48.758;9.158;2022-10-30T10:05:32;44.13;;;36.95;;
2211;SDS011;48849;48.758;9.158;2022-10-30T10:08:07;42.58;;;35.28;;
2211;SDS011;48849;48.758;9.158;2022-10-30T10:10:38;38.67;;;31.40;;
2211;SDS011;48849;48.758;9.158;2022-10-30T10:13:10;35.92;;;27.55;;
2211;SDS011;48849;48.758;9.158;2022-10-30T10:15:48;29.35;;;24.00;;
2211;SDS011;48849;48.758;9.158;2022-10-30T10:18:22;30.17;;;22.48;;
2211;SDS011;48849;48.758;9.158;2022-10-30T10:20:52;23.52;;;19.10;;
2211;SDS011;48849;48.758;9.158;2022-10-30T10:23:25;24.60;;;19.88;;
2211;SDS011;48849;48.758;9.158;2022-10-30T10:25:57;25.98;;;17.10;;
2211;SDS011;48849;48.758;9.158;2022-10-30T10:28:40;23.58;;;18.67;;
2211;SDS011;48849;48.758;9.158;2022-10-30T10:31:21;22.70;;;17.15;;
2211;SDS011;48849;48.758;9.158;2022-10-30T10:34:01;26.45;;;16.75;;
2211;SDS011;48849;48.758;9.158;2022-10-30T10:36:44;28.67;;;16.20;;
2211;SDS011;48849;48.758;9.158;2022-10-30T10:39:26;17.30;;;14.10;;
2211;SDS011;48849;48.758;9.158;2022-10-30T10:42:08;24.20;;;15.05;;
2211;SDS011;48849;48.758;9.158;2022-10-30T10:44:46;19.23;;;13.60;;
2211;SDS011;48849;48.758;9.158;2022-10-30T10:47:34;18.00;;;12.80;;
2211;SDS011;48849;48.758;9.158;2022-10-30T10:50:15;21.02;;;13.15;;
2211;SDS011;48849;48.758;9.158;2022-10-30T10:52:48;19.50;;;13.55;;
2211;SDS011;48849;48.758;9.158;2022-10-30T10:55:19;16.80;;;13.70;;
2211;SDS011;48849;48.758;9.158;2022-10-30T10:57:49;16.73;;;12.52;;
2211;SDS011;48849;48.758;9.158;2022-10-30T11:00:18;20.50;;;12.70;;
2211;SDS011;48849;48.758;9.158;2022-10-30T11:02:49;18.98;;;12.20;;
2211;SDS011;48849;48.758;9.158;2022-10-30T11:05:25;15.90;;;13.13;;
2211;SDS011;48849;48.758;9.158;2022-10-30T11:07:57;18.23;;;13.80;;
2211;SDS011;48849;48.758;9.158;2022-10-30T11:10:27;17.67;;;12.30;;
2211;SDS011;48849;48.758;9.158;2022-10-30T11:12:53;19.65;;;14.52;;
2211;SDS011;48849;48.758;9.158;2022-10-30T11:15:22;18.75;;;14.23;;
2211;SDS011;48849;48.758;9.158;2022-10-30T11:17:58;16.17;;;13.57;;
2211;SDS011;48849;48.758;9.158;2022-10-30T11:20:30;22.02;;;15.80;;
2211;SDS011;48849;48.758;9.158;2022-10-30T11:23:02;22.30;;;15.20;;
2211;SDS011;48849;48.758;9.158;2022-10-30T11:25:32;21.00;;;15.30;;
2211;SDS011;48849;48.758;9.158;2022-10-30T11:28:01;22.27;;;15.80;;
2211;SDS011;48849;48.758;9.158;2022-10-30T11:30:30;22.83;;;16.57;;
2211;SDS011;48849;48.758;9.158;2022-10-30T11:32:57;21.83;;;17.80;;
2211;SDS011;48849;48.758;9.158;2022-10-30T11:35:25;26.70;;;20.00;;
2211;SDS011;48849;48.758;9.158;2022-10-30T11:38:10;26.00;;;18.73;;
2211;SDS011;48849;48.758;9.158;2022-10-30T11:40:38;29.80;;;21.57;;
2211;SDS011;48849;48.758;9.158;2022-10-30T11:43:11;29.77;;;20.60;;
2211;SDS011;48849;48.758;9.158;2022-10-30T11:45:43;29.60;;;22.37;;
2211;SDS011;48849;48.758;9.158;2022-10-30T11:48:15;37.30;;;27.70;;
2211;SDS011;48849;48.758;9.158;2022-10-30T11:50:47;36.90;;;25.13;;
2211;SDS011;48849;48.758;9.158;2022-10-30T11:53:18;31.13;;;24.80;;
2211;SDS011;48849;48.758;9.158;2022-10-30T11:55:47;32.60;;;26.17;;
2211;SDS011;48849;48.758;9.158;2022-10-30T11:58:19;34.20;;;28.00;;
2211;SDS011;48849;48.758;9.158;2022-10-30T12:00:56;34.40;;;27.07;;
2211;SDS011;48849;48.758;9.158;2022-10-30T12:03:27;36.30;;;28.27;;
2211;SDS011;48849;48.758;9.158;2022-10-30T12:06:05;41.03;;;28.90;;
2211;SDS011;48849;48.758;9.158;2022-10-30T12:08:34;43.10;;;31.43;;
2211;SDS011;48849;48.758;9.158;2022-10-30T12:11:02;40.73;;;31.87;;
2211;SDS011;48849;48.758;9.158;2022-10-30T12:13:31;36.57;;;29.10;;
2211;SDS011;48849;48.758;9.158;2022-10-30T12:16:07;41.50;;;30.45;;
2211;SDS011;48849;48.758;9.158;2022-10-30T12:18:51;41.13;;;28.73;;
2211;SDS011;48849;48.758;9.158;2022-10-30T12:21:24;35.20;;;28.00;;
2211;SDS011;48849;48.758;9.158;2022-10-30T12:23:54;32.90;;;27.50;;
2211;SDS011;48849;48.758;9.158;2022-10-30T12:26:25;31.13;;;25.43;;
2211;SDS011;48849;48.758;9.158;2022-10-30T12:28:55;37.17;;;27.08;;
2211;SDS011;48849;48.758;9.158;2022-10-30T12:31:25;33.80;;;24.75;;
2211;SDS011;48849;48.758;9.158;2022-10-30T12:34:02;28.60;;;22.30;;
2211;SDS011;48849;48.758;9.158;2022-10-30T12:36:36;33.53;;;23.10;;
2211;SDS011;48849;48.758;9.158;2022-10-30T12:39:11;26.10;;;20.47;;
2211;SDS011;48849;48.758;9.158;2022-10-30T12:41:45;26.50;;;20.27;;
2211;SDS011;48849;48.758;9.158;2022-10-30T12:44:17;25.43;;;20.87;;
2211;SDS011;48849;48.758;9.158;2022-10-30T12:46:47;28.93;;;22.43;;
2211;SDS011;48849;48.758;9.158;2022-10-30T12:49:19;33.20;;;26.60;;
2211;SDS011;48849;48.758;9.158;2022-10-30T12:51:54;35.73;;;28.13;;
2211;SDS011;48849;48.758;9.158;2022-10-30T12:54:28;41.20;;;29.50;;
2211;SDS011;48849;48.758;9.158;2022-10-30T12:57:04;38.22;;;31.67;;
2211;SDS011;48849;48.758;9.158;2022-10-30T12:59:38;35.47;;;28.90;;
2211;SDS011;48849;48.758;9.158;2022-10-30T13:02:14;33.90;;;27.63;;
2211;SDS011;48849;48.758;9.158;2022-10-30T13:04:49;30.70;;;25.17;;
2211;SDS011;48849;48.758;9.158;2022-10-30T13:07:22;30.80;;;24.83;;
2211;SDS011;48849;48.758;9.158;2022-10-30T13:09:56;29.13;;;23.40;;
2211;SDS011;48849;48.758;9.158;2022-10-30T13:12:31;33.37;;;22.60;;
2211;SDS011;48849;48.758;9.158;2022-10-30T13:15:02;26.30;;;22.87;;
2211;SDS011;48849;48.758;9.158;2022-10-30T13:17:34;30.60;;;23.95;;
2211;SDS011;48849;48.758;9.158;2022-10-30T13:20:00;31.63;;;27.10;;
2211;SDS011;48849;48.758;9.158;2022-10-30T13:22:33;37.50;;;31.40;;
2211;SDS011;48849;48.758;9.158;2022-10-30T13:25:07;38.20;;;31.10;;
2211;SDS011;48849;48.758;9.158;2022-10-30T13:27:41;38.90;;;32.13;;
2211;SDS011;48849;48.758;9.158;2022-10-30T13:30:13;42.63;;;32.83;;
2211;SDS011;48849;48.758;9.158;2022-10-30T13:32:44;42.23;;;34.00;;
2211;SDS011;48849;48.758;9.158;2022-10-30T13:35:26;46.90;;;38.80;;
2211;SDS011;48849;48.758;9.158;2022-10-30T13:37:59;52.97;;;43.33;;
2211;SDS011;48849;48.758;9.158;2022-10-30T13:40:40;51.13;;;43.77;;
2211;SDS011;48849;48.758;9.158;2022-10-30T13:43:13;50.63;;;43.20;;
2211;SDS011;48849;48.758;9.158;2022-10-30T13:45:56;49.27;;;41.53;;
2211;SDS011;48849;48.758;9.158;2022-10-30T13:48:47;42.30;;;35.70;;
2211;SDS011;48849;48.758;9.158;2022-10-30T13:51:33;45.00;;;38.27;;
2211;SDS011;48849;48.758;9.158;2022-10-30T13:54:07;46.33;;;39.20;;
2211;SDS011;48849;48.758;9.158;2022-10-30T13:56:41;51.07;;;44.23;;
2211;SDS011;48849;48.758;9.158;2022-10-30T14:02:16;58.83;;;48.67;;
2211;SDS011;48849;48.758;9.158;2022-10-30T14:04:54;52.20;;;46.37;;
2211;SDS011;48849;48.758;9.158;2022-10-30T14:07:28;53.43;;;44.03;;
2211;SDS011;48849;48.758;9.158;2022-10-30T14:10:04;48.27;;;42.80;;
2211;SDS011;48849;48.758;9.158;2022-10-30T14:12:48;51.57;;;41.27;;
2211;SDS011;48849;48.758;9.158;2022-10-30T14:15:24;46.37;;;40.30;;
2211;SDS011;48849;48.758;9.158;2022-10-30T14:20:55;41.97;;;36.60;;
2211;SDS011;48849;48.758;9.158;2022-10-30T14:23:23;40.73;;;33.33;;
2211;SDS011;48849;48.758;9.158;2022-10-30T14:26:11;35.70;;;30.02;;
2211;SDS011;48849;48.758;9.158;2022-10-30T14:28:40;29.70;;;24.70;;
2211;SDS011;48849;48.758;9.158;2022-10-30T14:31:10;27.40;;;21.93;;
2211;SDS011;48849;48.758;9.158;2022-10-30T14:33:42;26.43;;;20.67;;
2211;SDS011;48849;48.758;9.158;2022-10-30T14:36:11;23.73;;;19.67;;
2211;SDS011;48849;48.758;9.158;2022-10-30T14:38:39;25.80;;;20.17;;
2211;SDS011;48849;48.758;9.158;2022-10-30T14:41:14;23.53;;;20.73;;
2211;SDS011;48849;48.758;9.158;2022-10-30T14:43:54;27.20;;;22.17;;
2211;SDS011;48849;48.758;9.158;2022-10-30T14:46:43;26.07;;;22.97;;
2211;SDS011;48849;48.758;9.158;2022-10-30T14:49:28;27.50;;;24.03;;
2211;SDS011;48849;48.758;9.158;2022-10-30T14:52:06;27.00;;;23.63;;
2211;SDS011;48849;48.758;9.158;2022-10-30T14:54:41;31.63;;;24.63;;
2211;SDS011;48849;48.758;9.158;2022-10-30T14:57:20;32.87;;;28.10;;
2211;SDS011;48849;48.758;9.158;2022-10-30T14:59:48;32.53;;;26.33;;
2211;SDS011;48849;48.758;9.158;2022-10-30T15:02:54;33.60;;;27.53;;
2211;SDS011;48849;48.758;9.158;2022-10-30T15:05:30;33.10;;;26.57;;
2211;SDS011;48849;48.758;9.158;2022-10-30T15:08:11;33.77;;;27.53;;
2211;SDS011;48849;48.758;9.158;2022-10-30T15:10:50;36.13;;;29.30;;